Time;durP1;ratioP1;P1;durP2;ratioP2;P2;SDS_P1;SDS_P2;PMS_P1;PMS_P2;Temp;Humidity;BMP_temperature;BMP_pressure;BME280_temperature;BME280_humidity;BME280_pressure;Samples;Min_cycle;Max_cycle;Signal;HPM_P1;HPM_P2
2022/03/31 00:01:02;;;;;;;;;13.00;12.60;;;;;17.66;33.57;97886.31;5028012;28;8866;-72
2022/03/31 00:03:32;;;;;;;;;15.60;15.00;;;;;17.65;33.44;97889.84;5028126;28;8875;-75
2022/03/31 00:06:00;;;;;;;;;15.80;13.20;;;;;17.65;33.40;97895.97;5039876;28;8880;-70
2022/03/31 00:08:29;;;;;;;;;13.20;12.00;;;;;17.63;33.81;97900.47;5028270;28;8835;-70
2022/03/31 00:10:58;;;;;;;;;13.00;11.00;;;;;17.64;33.89;97896.09;5030419;28;8862;-69
2022/03/31 00:13:30;;;;;;;;;14.40;12.40;;;;;17.64;33.84;97899.56;5033466;28;8848;-71
2022/03/31 00:16:00;;;;;;;;;14.80;13.00;;;;;17.68;34.13;97894.97;5029671;28;8886;-74
2022/03/31 00:18:31;;;;;;;;;17.20;15.20;;;;;17.63;34.28;97883.81;5031857;28;8878;-70
2022/03/31 00:21:00;;;;;;;;;13.40;13.20;;;;;17.63;34.59;97883.81;5032210;28;8843;-71
2022/03/31 00:23:29;;;;;;;;;16.40;13.20;;;;;17.55;34.71;97892.16;5046507;28;8846;-72
2022/03/31 00:25:57;;;;;;;;;15.40;14.60;;;;;17.52;34.35;97893.19;5048754;28;8854;-71
2022/03/31 00:28:26;;;;;;;;;15.40;14.00;;;;;17.46;34.41;97901.41;5048739;28;8882;-70
2022/03/31 00:30:54;;;;;;;;;15.40;14.20;;;;;17.42;34.84;97891.97;5048784;28;8976;-73
2022/03/31 00:33:24;;;;;;;;;17.00;14.80;;;;;17.36;34.82;97892.34;5048594;28;8854;-71
2022/03/31 00:35:53;;;;;;;;;15.40;14.80;;;;;17.30;35.18;97892.66;5049114;28;8919;-71
2022/03/31 00:38:22;;;;;;;;;13.40;12.00;;;;;17.22;35.20;97895.72;5048989;28;8862;-70
2022/03/31 00:40:51;;;;;;;;;16.00;13.40;;;;;17.24;35.22;97898.25;5047433;28;8972;-70
2022/03/31 00:43:20;;;;;;;;;19.80;14.60;;;;;17.19;35.82;97898.50;5048640;28;9027;-71
2022/03/31 00:45:50;;;;;;;;;13.00;13.00;;;;;17.20;35.70;97899.34;5048483;28;8887;-70
2022/03/31 00:48:20;;;;;;;;;12.20;10.60;;;;;17.15;35.99;97895.19;5048342;28;8955;-71
2022/03/31 00:50:50;;;;;;;;;15.00;15.00;;;;;17.14;35.91;97882.97;5048315;28;8866;-70
2022/03/31 00:53:19;;;;;;;;;13.60;12.20;;;;;17.12;36.13;97887.44;5048265;28;8997;-71
2022/03/31 00:55:57;;;;;;;;;14.60;14.00;;;;;17.10;36.11;97888.47;5050133;28;8941;-71
2022/03/31 00:58:26;;;;;;;;;14.00;13.00;;;;;17.14;36.42;97882.09;5050603;28;8848;-70
2022/03/31 01:00:54;;;;;;;;;14.00;11.60;;;;;17.19;36.10;97885.34;5051110;28;9642;-71
2022/03/31 01:03:24;;;;;;;;;14.20;12.00;;;;;17.27;36.07;97890.19;5051408;28;8951;-74
2022/03/31 01:05:54;;;;;;;;;10.80;10.20;;;;;17.32;36.35;97882.91;5050984;28;8896;-69
2022/03/31 01:08:24;;;;;;;;;12.40;11.40;;;;;17.35;36.33;97880.06;5051349;28;8860;-70
2022/03/31 01:10:53;;;;;;;;;14.00;10.40;;;;;17.38;36.02;97882.56;5051192;28;8933;-73
2022/03/31 01:13:22;;;;;;;;;13.80;10.80;;;;;17.39;36.20;97879.00;5037000;28;8917;-71
2022/03/31 01:15:51;;;;;;;;;9.40;7.60;;;;;17.41;36.46;97870.97;5045558;28;8958;-69
2022/03/31 01:18:20;;;;;;;;;11.40;9.40;;;;;17.38;36.79;97868.53;5050463;28;9651;-71
2022/03/31 01:20:48;;;;;;;;;11.60;9.20;;;;;17.36;36.89;97871.25;5048911;28;8844;-73
2022/03/31 01:23:20;;;;;;;;;12.80;11.80;;;;;17.24;37.13;97859.59;5050795;28;8903;-74
2022/03/31 01:25:49;;;;;;;;;12.80;10.20;;;;;17.26;37.27;97857.75;5009349;28;9626;-70
2022/03/31 01:28:18;;;;;;;;;10.20;9.00;;;;;17.24;37.67;97859.59;5012083;28;8882;-71
2022/03/31 01:30:47;;;;;;;;;8.80;8.00;;;;;17.25;37.64;97855.19;5030116;28;8913;-70
2022/03/31 01:33:16;;;;;;;;;13.80;11.00;;;;;17.17;38.28;97850.34;5029014;28;8900;-71
2022/03/31 01:35:46;;;;;;;;;9.80;9.80;;;;;17.05;38.91;97850.97;5012329;28;8863;-69
2022/03/31 01:38:14;;;;;;;;;16.00;12.80;;;;;17.03;38.85;97840.56;5012198;28;8859;-71
2022/03/31 01:40:44;;;;;;;;;10.00;10.00;;;;;17.04;38.93;97844.88;5030339;28;8842;-71
2022/03/31 01:43:13;;;;;;;;;11.20;11.20;;;;;17.08;39.09;97848.19;5030380;28;8832;-71
2022/03/31 01:45:42;;;;;;;;;11.60;9.20;;;;;17.04;39.43;97849.31;5030373;28;8929;-73
2022/03/31 01:48:12;;;;;;;;;11.60;8.40;;;;;17.04;39.04;97839.63;5038665;28;8984;-71
2022/03/31 01:50:41;;;;;;;;;13.40;12.80;;;;;16.95;39.50;97842.75;5050345;28;8947;-70
2022/03/31 01:53:10;;;;;;;;;12.00;10.60;;;;;16.99;39.17;97840.78;5049830;28;8925;-71
2022/03/31 01:55:40;;;;;;;;;14.60;13.40;;;;;16.91;39.12;97835.94;5050319;28;8869;-71
2022/03/31 01:58:10;;;;;;;;;14.20;11.80;;;;;16.95;39.11;97829.56;5050262;28;8868;-74
2022/03/31 02:00:39;;;;;;;;;12.40;11.20;;;;;16.87;39.29;97829.16;5050443;28;8865;-70
2022/03/31 02:03:08;;;;;;;;;14.60;12.60;;;;;16.87;39.17;97823.88;5050124;28;9007;-72
2022/03/31 02:05:37;;;;;;;;;9.40;9.40;;;;;16.79;39.35;97816.38;5041310;28;8856;-71
2022/03/31 02:08:06;;;;;;;;;11.20;10.60;;;;;16.79;39.61;97816.38;5029891;28;8851;-72
2022/03/31 02:10:36;;;;;;;;;13.40;12.20;;;;;16.66;39.77;97802.16;5029807;28;8863;-70
2022/03/31 02:13:07;;;;;;;;;13.60;13.20;;;;;16.55;40.08;97802.72;5028271;28;9444;-70
2022/03/31 02:15:37;;;;;;;;;16.60;14.60;;;;;16.51;40.47;97791.50;5029522;28;8883;-70
2022/03/31 02:18:06;;;;;;;;;13.80;12.60;;;;;16.31;40.89;97784.69;5006983;28;8846;-69
2022/03/31 02:20:35;;;;;;;;;15.00;12.00;;;;;16.22;41.56;97790.41;5007417;28;8866;-73
2022/03/31 02:23:04;;;;;;;;;17.40;15.00;;;;;16.17;41.95;97787.16;5007629;28;8870;-72
2022/03/31 02:25:34;;;;;;;;;14.00;13.00;;;;;16.07;42.46;97781.53;5007389;28;8862;-71
2022/03/31 02:28:06;;;;;;;;;14.80;12.00;;;;;16.01;42.85;97775.72;5007533;28;8831;-69
2022/03/31 02:30:37;;;;;;;;;15.60;13.80;;;;;15.91;43.13;97777.97;5013195;28;8951;-73
2022/03/31 02:33:06;;;;;;;;;15.20;14.20;;;;;15.78;43.89;97783.00;4992957;28;8864;-71
2022/03/31 02:35:34;;;;;;;;;13.20;12.20;;;;;15.76;43.87;97795.38;5026704;28;8880;-70
2022/03/31 02:38:03;;;;;;;;;14.00;12.20;;;;;15.79;44.00;97801.31;5025496;28;8879;-73
2022/03/31 02:40:32;;;;;;;;;13.40;13.40;;;;;15.70;44.64;97785.97;5026773;28;8937;-71
2022/03/31 02:43:00;;;;;;;;;17.00;16.20;;;;;15.71;44.86;97789.47;5026390;28;8856;-70
2022/03/31 02:45:29;;;;;;;;;14.80;13.20;;;;;15.64;45.95;97785.44;4993963;28;8910;-75
2022/03/31 02:47:59;;;;;;;;;14.20;14.20;;;;;15.70;46.42;97780.72;4977141;28;8836;-71
2022/03/31 02:50:27;;;;;;;;;17.80;17.00;;;;;15.75;46.67;97781.38;5033509;28;8983;-71
2022/03/31 02:55:43;;;;;;;;;16.40;13.20;;;;;15.73;47.87;97756.09;5029034;28;8933;-71
2022/03/31 02:58:12;;;;;;;;;11.00;10.60;;;;;15.73;48.63;97749.06;5043934;28;8835;-71
2022/03/31 03:00:41;;;;;;;;;18.00;13.00;;;;;15.69;48.73;97747.50;5028700;28;8940;-73
2022/03/31 03:03:11;;;;;;;;;16.80;15.80;;;;;15.70;49.21;97745.72;5028765;28;8962;-71
2022/03/31 03:05:41;;;;;;;;;13.40;13.40;;;;;15.65;49.62;97742.47;5028559;28;10060;-71
2022/03/31 03:08:10;;;;;;;;;16.40;13.60;;;;;15.64;49.51;97746.03;5027300;28;8863;-70
2022/03/31 03:10:40;;;;;;;;;18.80;17.60;;;;;15.60;49.69;97751.44;5043621;28;8986;-69
2022/03/31 03:13:09;;;;;;;;;11.80;11.20;;;;;15.54;50.02;97759.63;5028688;28;8856;-70
2022/03/31 03:15:38;;;;;;;;;25.75;23.50;;;;;15.49;50.26;97766.88;5028516;28;8867;-72
2022/03/31 03:18:08;;;;;;;;;19.00;15.80;;;;;15.41;50.82;97771.66;5028286;28;9667;-71
2022/03/31 03:20:38;;;;;;;;;15.60;12.20;;;;;15.37;51.10;97788.50;5026953;28;8871;-73
2022/03/31 03:23:07;;;;;;;;;14.00;13.00;;;;;15.38;51.39;97767.38;5028457;28;8860;-71
2022/03/31 03:25:35;;;;;;;;;11.00;10.80;;;;;15.32;51.57;97762.44;5033448;28;8888;-71
2022/03/31 03:28:04;;;;;;;;;17.40;14.00;;;;;15.38;51.48;97745.53;5013134;28;8892;-73
2022/03/31 03:30:34;;;;;;;;;17.60;14.80;;;;;15.36;51.37;97737.72;5046902;28;8864;-72
2022/03/31 03:33:02;;;;;;;;;17.40;13.80;;;;;15.31;51.32;97741.50;5029191;28;8974;-74
2022/03/31 03:35:31;;;;;;;;;13.60;11.20;;;;;15.23;51.98;97743.66;5027936;28;8855;-70
2022/03/31 03:38:01;;;;;;;;;11.60;11.20;;;;;15.19;52.24;97751.66;5028061;28;8863;-73
2022/03/31 03:40:31;;;;;;;;;14.80;12.00;;;;;15.12;52.36;97744.16;5028337;28;8843;-70
2022/03/31 03:43:00;;;;;;;;;15.60;12.80;;;;;15.11;52.66;97738.06;5010484;28;8849;-70
2022/03/31 03:45:29;;;;;;;;;14.20;14.00;;;;;15.08;53.19;97725.09;5048370;28;8857;-70
2022/03/31 03:47:58;;;;;;;;;16.80;13.60;;;;;15.09;53.10;97712.84;5029272;28;8845;-71
2022/03/31 03:50:27;;;;;;;;;15.60;14.00;;;;;15.00;53.87;97706.25;5048127;28;8836;-73
2022/03/31 03:52:56;;;;;;;;;18.40;13.20;;;;;14.87;54.23;97705.97;5048471;28;8869;-71
2022/03/31 03:55:26;;;;;;;;;16.80;12.80;;;;;14.87;54.81;97708.59;5021467;28;8883;-72
2022/03/31 03:57:55;;;;;;;;;21.25;18.50;;;;;14.87;54.44;97705.13;5028102;28;8832;-75
2022/03/31 04:00:24;;;;;;;;;8.80;8.60;;;;;14.83;54.71;97707.03;5027431;28;8953;-71
2022/03/31 04:02:53;;;;;;;;;17.20;14.60;;;;;14.80;54.89;97696.69;5042968;28;8855;-70
2022/03/31 04:05:22;;;;;;;;;12.00;10.20;;;;;14.84;54.74;97700.00;5027796;28;8835;-71
2022/03/31 04:07:51;;;;;;;;;15.60;15.40;;;;;14.73;55.25;97692.66;5028028;28;8886;-71
2022/03/31 04:10:19;;;;;;;;;15.80;12.20;;;;;14.81;55.31;97693.16;5027778;28;9064;-70
2022/03/31 04:12:50;;;;;;;;;14.20;11.60;;;;;14.86;55.17;97695.53;5026777;28;9034;-73
2022/03/31 04:15:18;;;;;;;;;13.00;13.00;;;;;14.86;55.19;97698.16;5027753;28;9037;-75
2022/03/31 04:17:47;;;;;;;;;15.60;14.80;;;;;14.89;54.62;97692.78;5041387;28;8837;-73
2022/03/31 04:20:16;;;;;;;;;14.40;12.80;;;;;14.86;54.81;97685.91;5047584;28;8914;-70
2022/03/31 04:22:44;;;;;;;;;26.25;25.75;;;;;14.92;54.58;97688.25;5046534;28;8950;-70
2022/03/31 04:25:14;;;;;;;;;16.60;13.60;;;;;14.90;54.94;97694.50;4996389;28;8857;-70
2022/03/31 04:27:43;;;;;;;;;16.60;14.20;;;;;14.83;55.24;97699.16;5047630;28;9040;-73
2022/03/31 04:30:18;;;;;;;;;12.20;11.40;;;;;14.81;55.04;97683.50;5046623;28;8853;-73
2022/03/31 04:32:47;;;;;;;;;22.60;19.20;;;;;14.81;54.76;97670.38;5027796;28;8863;-70
2022/03/31 04:35:17;;;;;;;;;15.80;12.20;;;;;14.82;54.98;97671.25;5042730;28;8986;-73
2022/03/31 04:37:45;;;;;;;;;14.80;12.80;;;;;14.85;54.83;97665.00;5028008;28;8871;-71
2022/03/31 04:40:15;;;;;;;;;12.20;11.20;;;;;14.91;54.83;97665.53;5027735;28;8902;-70
2022/03/31 04:42:44;;;;;;;;;17.20;15.80;;;;;14.87;55.16;97669.22;5027739;28;9676;-73
2022/03/31 04:45:14;;;;;;;;;17.40;12.60;;;;;14.92;54.45;97669.88;5028001;28;8847;-73
2022/03/31 04:47:43;;;;;;;;;14.40;14.20;;;;;14.94;54.84;97686.38;5027764;28;8863;-71
2022/03/31 04:50:12;;;;;;;;;16.20;11.60;;;;;14.94;55.03;97675.03;4991909;28;8984;-70
2022/03/31 04:52:42;;;;;;;;;15.80;13.80;;;;;14.87;55.13;97676.25;5027660;28;8864;-73
2022/03/31 04:55:12;;;;;;;;;13.80;11.80;;;;;14.94;55.55;97675.03;5026197;28;8940;-71
2022/03/31 04:57:40;;;;;;;;;14.80;13.20;;;;;15.04;55.02;97667.56;5030431;28;8953;-72
2022/03/31 05:00:10;;;;;;;;;13.00;11.40;;;;;15.05;54.91;97661.38;5029841;28;8851;-69
2022/03/31 05:02:41;;;;;;;;;13.20;11.00;;;;;15.05;54.72;97667.50;5030610;28;8945;-70
2022/03/31 05:05:10;;;;;;;;;11.20;9.40;;;;;15.04;54.81;97663.16;5030919;28;8875;-70
2022/03/31 05:07:38;;;;;;;;;15.80;13.20;;;;;15.05;55.22;97664.00;5045286;28;8976;-70
2022/03/31 05:10:08;;;;;;;;;12.80;12.20;;;;;15.00;55.85;97666.88;5012458;28;8847;-72
2022/03/31 05:12:36;;;;;;;;;13.40;12.20;;;;;14.93;56.02;97665.47;5030290;28;9605;-73
2022/03/31 05:15:06;;;;;;;;;11.60;11.00;;;;;14.99;56.36;97666.03;5030152;28;8890;-74
2022/03/31 05:17:36;;;;;;;;;11.80;10.20;;;;;14.99;56.94;97663.41;4995608;28;8956;-72
2022/03/31 05:20:08;;;;;;;;;13.40;12.80;;;;;15.07;56.91;97664.81;5030209;28;8997;-70
2022/03/31 05:22:38;;;;;;;;;12.40;10.60;;;;;15.08;56.71;97662.06;4978554;28;8859;-72
2022/03/31 05:25:09;;;;;;;;;12.60;10.00;;;;;15.08;56.51;97667.31;5029475;28;9595;-70
2022/03/31 05:27:43;;;;;;;;;11.00;9.60;;;;;15.09;57.06;97661.16;5030293;28;8876;-68
2022/03/31 05:30:13;;;;;;;;;12.80;10.60;;;;;15.14;56.64;97655.69;5030055;28;9018;-68
2022/03/31 05:32:42;;;;;;;;;10.40;9.40;;;;;15.15;56.97;97652.97;5029592;28;8863;-70
2022/03/31 05:35:13;;;;;;;;;14.20;12.60;;;;;15.15;57.23;97658.22;5029902;28;8863;-69
2022/03/31 05:37:43;;;;;;;;;11.60;10.80;;;;;15.13;57.24;97652.22;5029898;28;9653;-68
2022/03/31 05:40:14;;;;;;;;;9.40;8.20;;;;;15.11;57.81;97647.97;5029638;28;8868;-72
2022/03/31 05:42:44;;;;;;;;;6.40;6.40;;;;;15.11;58.20;97643.56;5008188;28;8876;-72
2022/03/31 05:45:13;;;;;;;;;15.60;10.80;;;;;15.00;58.66;97641.47;5014556;28;8853;-73
2022/03/31 05:47:44;;;;;;;;;13.40;12.40;;;;;14.97;59.27;97633.75;5014632;28;8922;-73
2022/03/31 05:50:15;;;;;;;;;18.20;11.40;;;;;14.95;58.89;97627.72;5049919;28;8864;-72
2022/03/31 05:52:44;;;;;;;;;11.00;10.40;;;;;14.98;59.38;97630.19;5035909;28;8917;-72
2022/03/31 05:55:16;;;;;;;;;16.20;11.80;;;;;14.96;59.13;97626.78;5029377;28;8866;-72
2022/03/31 05:57:45;;;;;;;;;12.00;11.00;;;;;15.00;59.56;97638.84;5044382;28;8857;-72
2022/03/31 06:00:16;;;;;;;;;12.00;11.00;;;;;14.94;59.68;97623.41;5046514;28;8848;-75
2022/03/31 06:02:46;;;;;;;;;12.40;11.40;;;;;15.02;59.31;97610.72;5030293;28;8918;-73
2022/03/31 06:05:20;;;;;;;;;11.60;11.00;;;;;15.00;59.00;97614.38;5048711;28;9625;-71
2022/03/31 06:07:50;;;;;;;;;6.20;6.20;;;;;14.96;59.36;97613.66;5013667;28;8879;-73
2022/03/31 06:10:18;;;;;;;;;11.60;11.40;;;;;15.06;59.21;97600.09;5033896;28;8848;-72
2022/03/31 06:12:47;;;;;;;;;11.80;11.80;;;;;15.02;59.63;97594.13;5029398;28;8872;-72
2022/03/31 06:15:17;;;;;;;;;14.60;14.60;;;;;15.06;59.57;97606.19;5029506;28;8851;-73
2022/03/31 06:17:46;;;;;;;;;12.80;11.80;;;;;15.04;59.67;97597.53;5029274;28;8851;-76
2022/03/31 06:20:15;;;;;;;;;17.00;14.40;;;;;14.98;59.53;97596.06;5029397;28;8855;-74
2022/03/31 06:22:45;;;;;;;;;18.60;14.80;;;;;15.02;59.62;97594.13;5027128;28;8859;-71
2022/03/31 06:25:14;;;;;;;;;14.40;13.00;;;;;15.06;59.17;97589.59;5042424;28;8896;-71
2022/03/31 06:27:46;;;;;;;;;12.60;12.20;;;;;15.08;59.00;97585.94;5036811;28;8891;-71
2022/03/31 06:30:15;;;;;;;;;15.20;13.00;;;;;15.12;59.28;97589.28;5029360;28;8855;-72
2022/03/31 06:32:44;;;;;;;;;17.20;12.80;;;;;15.13;58.86;97586.56;5032710;28;8865;-71
2022/03/31 06:35:15;;;;;;;;;19.20;14.40;;;;;15.05;59.21;97590.50;5049213;28;8849;-73
2022/03/31 06:37:46;;;;;;;;;18.20;15.60;;;;;15.16;58.87;97590.81;5013971;28;8877;-71
2022/03/31 06:40:17;;;;;;;;;13.80;12.00;;;;;15.22;58.57;97580.03;5029937;28;8845;-70
2022/03/31 06:42:47;;;;;;;;;10.00;9.40;;;;;15.30;58.35;97585.72;5033307;28;8828;-72
2022/03/31 06:45:16;;;;;;;;;12.80;11.20;;;;;15.42;57.37;97580.75;4994059;28;8879;-74
2022/03/31 06:47:56;;;;;;;;;14.00;13.40;;;;;15.51;57.21;97573.25;5028904;28;8855;-73
2022/03/31 06:50:30;;;;;;;;;17.20;17.20;;;;;15.48;56.94;97565.53;5028778;28;8864;-70
2022/03/31 06:53:01;;;;;;;;;18.00;13.40;;;;;15.59;56.82;97563.19;5027951;28;8875;-72
2022/03/31 06:55:30;;;;;;;;;13.00;12.40;;;;;15.64;56.81;97549.81;5009707;28;8881;-71
2022/03/31 06:57:59;;;;;;;;;15.20;12.00;;;;;15.69;56.70;97546.91;5028405;28;8859;-72
2022/03/31 07:00:29;;;;;;;;;13.00;12.20;;;;;15.75;56.19;97536.97;5032155;28;8871;-72
2022/03/31 07:02:59;;;;;;;;;15.40;14.00;;;;;15.75;56.10;97541.41;5047954;28;8861;-72
2022/03/31 07:05:28;;;;;;;;;13.80;13.60;;;;;15.79;56.16;97537.66;5033300;28;8881;-71
2022/03/31 07:07:58;;;;;;;;;17.40;14.80;;;;;15.86;55.76;97531.16;5040268;28;8895;-72
2022/03/31 07:10:27;;;;;;;;;12.00;10.80;;;;;15.91;55.51;97521.22;4993633;28;8860;-75
2022/03/31 07:12:56;;;;;;;;;14.00;13.80;;;;;16.00;55.13;97519.88;5027951;28;8869;-72
2022/03/31 07:15:25;;;;;;;;;13.80;12.20;;;;;16.05;55.00;97515.22;5044043;28;9650;-71
2022/03/31 07:17:54;;;;;;;;;15.00;12.20;;;;;16.03;54.75;97519.72;5047264;28;8919;-73
2022/03/31 07:20:24;;;;;;;;;4.40;3.60;;;;;16.05;54.58;97520.47;5045236;28;8958;-75
2022/03/31 07:22:52;;;;;;;;;11.40;10.20;;;;;16.07;54.81;97529.13;5047584;28;8860;-72
2022/03/31 07:25:21;;;;;;;;;16.20;13.80;;;;;16.12;54.54;97519.19;5048527;28;8873;-74
2022/03/31 07:27:52;;;;;;;;;16.40;14.40;;;;;16.14;54.27;97519.97;5029673;28;8871;-73
2022/03/31 07:30:22;;;;;;;;;10.80;10.00;;;;;16.25;53.81;97514.06;5027212;28;8902;-72
2022/03/31 07:32:53;;;;;;;;;9.40;8.80;;;;;16.31;53.85;97519.03;5063132;28;8869;-75
2022/03/31 07:35:24;;;;;;;;;11.20;11.20;;;;;16.43;53.16;97527.16;5047641;28;8899;-73
2022/03/31 07:37:54;;;;;;;;;12.60;11.20;;;;;16.49;52.99;97532.06;5047203;28;8861;-75
2022/03/31 07:40:25;;;;;;;;;15.40;14.00;;;;;16.52;52.93;97526.59;5046368;28;8876;-72
2022/03/31 07:42:55;;;;;;;;;14.40;11.60;;;;;16.61;52.70;97525.22;5028921;28;8860;-73
2022/03/31 07:45:25;;;;;;;;;13.60;12.60;;;;;16.70;52.40;97517.66;5027605;28;9617;-74
2022/03/31 07:47:54;;;;;;;;;20.20;16.40;;;;;16.77;52.10;97512.88;5027546;28;8865;-72
2022/03/31 07:50:23;;;;;;;;;17.40;12.80;;;;;16.76;52.45;97519.06;5038753;28;8868;-71
2022/03/31 07:52:52;;;;;;;;;15.60;15.00;;;;;16.84;51.89;97509.00;5038310;28;8895;-72
2022/03/31 07:55:20;;;;;;;;;13.80;13.40;;;;;16.84;51.59;97505.50;5046651;28;8960;-71
2022/03/31 07:57:50;;;;;;;;;19.40;12.40;;;;;16.84;51.84;97506.38;5032964;28;8957;-71
2022/03/31 08:00:22;;;;;;;;;14.40;12.60;;;;;16.95;51.67;97497.81;5036623;28;9652;-71
2022/03/31 08:02:52;;;;;;;;;13.80;12.60;;;;;16.99;51.41;97496.69;5030105;28;8910;-73
2022/03/31 08:05:23;;;;;;;;;18.20;15.80;;;;;17.07;51.46;97485.69;5027627;28;8911;-72
2022/03/31 08:07:52;;;;;;;;;15.40;12.20;;;;;17.14;50.77;97481.75;5026988;28;8872;-73
2022/03/31 08:10:22;;;;;;;;;17.00;12.80;;;;;17.16;50.69;97490.41;5027410;28;8851;-74
2022/03/31 08:12:51;;;;;;;;;15.40;14.80;;;;;17.20;50.25;97486.69;5029846;28;8851;-73
2022/03/31 08:15:23;;;;;;;;;15.20;12.40;;;;;17.27;49.53;97497.66;5007495;28;8849;-72
2022/03/31 08:17:51;;;;;;;;;8.60;7.40;;;;;17.36;49.28;97491.84;5034379;28;8885;-73
2022/03/31 08:20:21;;;;;;;;;10.00;9.80;;;;;17.46;49.21;97490.31;5027715;28;8871;-72
2022/03/31 08:22:49;;;;;;;;;14.80;13.60;;;;;17.42;48.91;97488.81;5027011;28;9006;-74
2022/03/31 08:25:19;;;;;;;;;16.00;12.00;;;;;17.43;49.27;97503.72;5027079;28;8879;-70
2022/03/31 08:27:48;;;;;;;;;15.40;12.00;;;;;17.61;48.68;97500.88;5059428;28;8890;-73
2022/03/31 08:30:23;;;;;;;;;11.60;10.00;;;;;17.67;48.63;97500.47;5026708;28;8855;-72
2022/03/31 08:32:52;;;;;;;;;15.80;13.40;;;;;17.87;48.63;97497.47;5033165;28;8836;-72
2022/03/31 08:35:24;;;;;;;;;17.40;13.60;;;;;17.99;48.11;97498.47;5042298;28;8857;-74
2022/03/31 08:37:54;;;;;;;;;13.60;12.80;;;;;18.09;47.96;97494.31;5032363;28;9605;-72
2022/03/31 08:40:22;;;;;;;;;14.60;12.60;;;;;18.21;47.25;97490.03;5031450;28;8970;-74
2022/03/31 08:42:54;;;;;;;;;16.00;12.00;;;;;18.26;47.38;97485.31;5031473;28;8937;-73
2022/03/31 08:45:24;;;;;;;;;16.60;15.00;;;;;18.41;46.49;97498.44;5031341;28;8880;-74
2022/03/31 08:47:54;;;;;;;;;12.80;11.80;;;;;18.37;46.72;97503.06;5023011;28;8838;-74
2022/03/31 08:50:23;;;;;;;;;13.00;11.80;;;;;18.36;46.87;97492.66;4986382;28;8864;-72
2022/03/31 08:52:53;;;;;;;;;11.80;10.20;;;;;18.40;46.34;97502.06;5011418;28;8866;-71
2022/03/31 08:55:23;;;;;;;;;12.60;8.80;;;;;18.39;46.06;97481.88;5009200;28;8992;-73
2022/03/31 08:57:54;;;;;;;;;18.00;15.40;;;;;18.46;46.57;97491.09;5008444;28;8862;-71
2022/03/31 09:00:26;;;;;;;;;15.60;12.40;;;;;18.51;46.53;97478.44;5007751;28;9000;-72
2022/03/31 09:02:57;;;;;;;;;15.20;10.60;;;;;18.48;46.44;97474.19;4991673;28;8878;-73
2022/03/31 09:05:26;;;;;;;;;15.20;12.80;;;;;18.47;47.08;97463.75;4993484;28;8886;-74
2022/03/31 09:07:57;;;;;;;;;10.00;10.00;;;;;18.50;46.87;97458.25;4987724;28;9025;-73
2022/03/31 09:10:28;;;;;;;;;12.60;11.00;;;;;18.54;46.79;97450.97;4972540;28;8880;-72
2022/03/31 09:12:58;;;;;;;;;11.80;9.20;;;;;18.42;47.63;97447.38;4988800;28;8853;-72
2022/03/31 09:15:34;;;;;;;;;10.80;9.80;;;;;18.49;47.00;97449.50;4956511;28;8864;-69
2022/03/31 09:18:03;;;;;;;;;14.00;12.80;;;;;18.61;47.20;97460.19;4958372;28;8880;-73
2022/03/31 09:20:37;;;;;;;;;13.00;10.80;;;;;18.62;46.77;97453.94;5027646;28;8942;-73
2022/03/31 09:23:06;;;;;;;;;8.80;7.40;;;;;18.59;47.28;97465.56;5027907;28;8899;-71
2022/03/31 09:25:35;;;;;;;;;8.00;8.00;;;;;18.51;47.30;97468.72;5011217;28;9875;-72
2022/03/31 09:28:15;;;;;;;;;14.00;11.60;;;;;18.35;47.70;97462.75;5011800;28;8957;-70
2022/03/31 09:30:50;;;;;;;;;12.80;9.80;;;;;18.47;47.76;97456.69;5026719;28;8856;-72
2022/03/31 09:33:27;;;;;;;;;13.40;11.20;;;;;18.43;48.28;97454.31;5027377;28;9118;-71
2022/03/31 09:36:01;;;;;;;;;11.60;9.80;;;;;18.37;48.54;97447.66;5008070;28;8910;-72
2022/03/31 09:38:32;;;;;;;;;12.20;11.40;;;;;18.31;49.27;97438.34;5026526;28;8918;-72
2022/03/31 09:41:03;;;;;;;;;8.80;7.80;;;;;18.30;49.80;97447.22;5027149;28;8860;-72
2022/03/31 09:43:41;;;;;;;;;10.80;9.80;;;;;18.24;49.17;97450.28;5010433;28;8937;-75
2022/03/31 09:46:22;;;;;;;;;9.80;8.40;;;;;18.22;49.24;97443.41;5033632;28;8925;-72
2022/03/31 09:48:55;;;;;;;;;9.60;9.20;;;;;18.04;49.39;97442.81;5043207;28;8845;-73
2022/03/31 09:51:26;;;;;;;;;13.80;11.80;;;;;18.09;49.27;97453.91;5048955;28;8873;-74
2022/03/31 09:53:56;;;;;;;;;12.00;9.20;;;;;18.12;49.79;97448.44;5049017;28;8881;-72
2022/03/31 09:56:25;;;;;;;;;8.00;7.00;;;;;18.11;49.40;97442.31;5036555;28;8864;-73
2022/03/31 09:58:57;;;;;;;;;9.40;9.00;;;;;18.21;49.18;97452.28;5010462;28;8992;-72
2022/03/31 10:01:26;;;;;;;;;11.20;9.00;;;;;18.30;49.45;97455.16;5029096;28;8860;-74
2022/03/31 10:03:56;;;;;;;;;14.00;12.00;;;;;18.14;49.73;97462.38;5044096;28;8854;-73
2022/03/31 10:06:26;;;;;;;;;12.60;11.00;;;;;18.16;50.31;97454.34;5049109;28;8980;-72
2022/03/31 10:08:57;;;;;;;;;13.40;11.20;;;;;17.70;54.94;97468.66;5048826;28;8845;-72
2022/03/31 10:11:29;;;;;;;;;14.20;12.00;;;;;17.45;58.12;97467.56;5048203;28;8873;-72
2022/03/31 10:14:18;;;;;;;;;14.20;11.40;;;;;16.87;61.35;97474.56;5046385;28;8892;-72
2022/03/31 10:16:58;;;;;;;;;11.80;11.40;;;;;16.25;64.57;97476.41;4943502;28;8906;-73
2022/03/31 10:19:29;;;;;;;;;17.60;15.60;;;;;15.97;67.58;97476.22;4986880;28;8938;-74
2022/03/31 10:21:59;;;;;;;;;13.60;13.00;;;;;15.73;66.18;97494.16;4984804;28;8850;-73
2022/03/31 10:24:42;;;;;;;;;13.00;11.20;;;;;15.78;66.81;97491.28;4970647;28;8869;-72
2022/03/31 10:27:15;;;;;;;;;10.60;8.20;;;;;15.96;66.53;97481.53;4987418;28;8846;-73
2022/03/31 10:29:45;;;;;;;;;12.20;11.60;;;;;16.08;64.07;97464.22;4970972;28;8834;-72
2022/03/31 10:32:21;;;;;;;;;10.60;10.60;;;;;16.08;63.58;97465.06;4977948;28;8878;-77
2022/03/31 10:34:51;;;;;;;;;12.40;12.00;;;;;16.14;63.90;97467.38;4987092;28;8870;-76
2022/03/31 10:37:32;;;;;;;;;13.00;11.60;;;;;16.14;64.21;97469.13;4970750;28;8850;-72
2022/03/31 10:40:03;;;;;;;;;15.60;14.20;;;;;16.14;64.58;97470.00;4986225;28;9013;-74
2022/03/31 10:42:32;;;;;;;;;13.60;12.40;;;;;16.20;64.11;97460.91;4986722;28;8927;-73
2022/03/31 10:45:12;;;;;;;;;17.80;15.00;;;;;16.23;64.37;97454.63;4986239;28;9822;-75
2022/03/31 10:47:44;;;;;;;;;12.80;12.60;;;;;16.23;64.41;97450.19;4986907;28;8858;-71
2022/03/31 10:50:25;;;;;;;;;14.80;10.40;;;;;16.22;64.32;97448.53;4986940;28;8870;-71
2022/03/31 10:53:01;;;;;;;;;10.60;9.80;;;;;16.27;64.08;97448.25;4986488;28;8858;-73
2022/03/31 10:55:38;;;;;;;;;12.20;11.20;;;;;16.26;64.78;97441.31;5006592;28;8869;-70
2022/03/31 10:58:08;;;;;;;;;15.20;12.20;;;;;16.23;65.12;97425.69;5030634;28;8848;-72
2022/03/31 11:00:37;;;;;;;;;14.40;12.40;;;;;16.32;65.15;97427.78;4993976;28;8902;-74
2022/03/31 11:03:09;;;;;;;;;12.60;11.80;;;;;16.15;66.12;97429.59;5028374;28;8856;-73
2022/03/31 11:05:47;;;;;;;;;13.80;13.00;;;;;16.16;66.01;97443.59;5026637;28;8880;-72
2022/03/31 11:08:18;;;;;;;;;13.60;13.20;;;;;16.05;66.75;97428.44;5028137;28;8836;-73
2022/03/31 11:10:49;;;;;;;;;17.60;16.40;;;;;15.95;67.05;97433.38;5027232;28;9017;-78
2022/03/31 11:13:20;;;;;;;;;15.80;13.40;;;;;15.83;66.95;97426.16;5028380;28;8852;-72
2022/03/31 11:15:50;;;;;;;;;15.00;13.00;;;;;15.77;67.63;97414.22;5028049;28;8860;-72
2022/03/31 11:18:23;;;;;;;;;14.20;12.20;;;;;15.73;68.16;97409.22;5028113;28;8929;-72
2022/03/31 11:20:56;;;;;;;;;14.00;13.20;;;;;15.69;68.08;97407.66;5042418;28;8901;-72
2022/03/31 11:23:26;;;;;;;;;12.80;12.40;;;;;15.71;68.66;97408.44;5034371;28;8853;-73
2022/03/31 11:25:56;;;;;;;;;14.20;14.00;;;;;15.64;69.52;97404.47;5042799;28;9720;-74
2022/03/31 11:28:28;;;;;;;;;18.40;17.40;;;;;15.73;69.01;97386.44;5012072;28;9618;-73
2022/03/31 11:30:59;;;;;;;;;22.60;18.00;;;;;15.65;69.53;97374.59;5047312;28;8849;-71
2022/03/31 11:33:36;;;;;;;;;16.40;15.80;;;;;15.58;69.67;97374.97;5048240;28;8876;-71
2022/03/31 11:36:05;;;;;;;;;17.80;16.00;;;;;15.55;70.01;97376.91;5047406;28;8895;-72
2022/03/31 11:38:34;;;;;;;;;18.80;16.20;;;;;15.58;69.74;97380.22;5026758;28;8851;-71
2022/03/31 11:41:03;;;;;;;;;19.40;17.60;;;;;15.58;69.96;97376.75;4978101;28;8889;-74
2022/03/31 11:43:33;;;;;;;;;19.40;17.60;;;;;15.56;69.83;97376.84;5028542;28;8866;-72